sensor_id;sensor_type;location;lat;lon;timestamp;P1;durP1;ratioP1;P2;durP2;ratioP2
52858;SDS011;38721;53.098;6.596;2022-10-04T00:09:35;17.40;;;7.47;;
52858;SDS011;38721;53.098;6.596;2022-10-04T00:12:13;14.68;;;8.10;;
52858;SDS011;38721;53.098;6.596;2022-10-04T00:15:16;14.98;;;7.72;;
52858;SDS011;38721;53.098;6.596;2022-10-04T00:17:56;12.90;;;7.22;;
52858;SDS011;38721;53.098;6.596;2022-10-04T00:25:48;18.08;;;8.25;;
52858;SDS011;38721;53.098;6.596;2022-10-04T00:33:42;17.58;;;7.55;;
52858;SDS011;38721;53.098;6.596;2022-10-04T00:46:41;16.15;;;8.68;;
52858;SDS011;38721;53.098;6.596;2022-10-04T00:49:08;16.75;;;8.60;;
52858;SDS011;38721;53.098;6.596;2022-10-04T00:51:38;15.07;;;8.65;;
52858;SDS011;38721;53.098;6.596;2022-10-04T00:54:11;15.18;;;8.65;;
52858;SDS011;38721;53.098;6.596;2022-10-04T00:57:06;14.27;;;8.27;;
52858;SDS011;38721;53.098;6.596;2022-10-04T00:59:39;18.05;;;9.45;;
52858;SDS011;38721;53.098;6.596;2022-10-04T01:02:13;19.95;;;9.00;;
52858;SDS011;38721;53.098;6.596;2022-10-04T01:07:25;18.08;;;8.90;;
52858;SDS011;38721;53.098;6.596;2022-10-04T01:10:05;22.45;;;9.35;;
52858;SDS011;38721;53.098;6.596;2022-10-04T01:15:21;17.50;;;10.40;;
52858;SDS011;38721;53.098;6.596;2022-10-04T01:18:06;17.10;;;10.15;;
52858;SDS011;38721;53.098;6.596;2022-10-04T01:20:47;17.40;;;9.73;;
52858;SDS011;38721;53.098;6.596;2022-10-04T01:25:59;23.60;;;10.77;;
52858;SDS011;38721;53.098;6.596;2022-10-04T01:28:25;24.63;;;10.90;;
52858;SDS011;38721;53.098;6.596;2022-10-04T01:30:51;17.90;;;10.82;;
52858;SDS011;38721;53.098;6.596;2022-10-04T01:33:18;17.60;;;9.85;;
52858;SDS011;38721;53.098;6.596;2022-10-04T01:35:44;20.33;;;11.27;;
52858;SDS011;38721;53.098;6.596;2022-10-04T01:38:10;20.40;;;11.07;;
52858;SDS011;38721;53.098;6.596;2022-10-04T01:40:41;15.60;;;9.85;;
52858;SDS011;38721;53.098;6.596;2022-10-04T01:43:16;25.23;;;10.30;;
52858;SDS011;38721;53.098;6.596;2022-10-04T01:45:53;23.95;;;11.65;;
52858;SDS011;38721;53.098;6.596;2022-10-04T01:48:26;20.10;;;10.05;;
52858;SDS011;38721;53.098;6.596;2022-10-04T01:51:01;17.83;;;11.23;;
52858;SDS011;38721;53.098;6.596;2022-10-04T01:53:39;15.82;;;10.07;;
52858;SDS011;38721;53.098;6.596;2022-10-04T01:56:13;24.05;;;10.70;;
52858;SDS011;38721;53.098;6.596;2022-10-04T01:58:47;18.13;;;10.68;;
52858;SDS011;38721;53.098;6.596;2022-10-04T02:01:22;21.33;;;10.18;;
52858;SDS011;38721;53.098;6.596;2022-10-04T02:04:34;18.23;;;9.50;;
52858;SDS011;38721;53.098;6.596;2022-10-04T02:06:55;19.90;;;9.77;;
52858;SDS011;38721;53.098;6.596;2022-10-04T02:09:28;18.15;;;9.60;;
52858;SDS011;38721;53.098;6.596;2022-10-04T02:12:01;16.13;;;9.35;;
52858;SDS011;38721;53.098;6.596;2022-10-04T02:14:31;20.38;;;10.30;;
52858;SDS011;38721;53.098;6.596;2022-10-04T02:16:59;18.17;;;9.63;;
52858;SDS011;38721;53.098;6.596;2022-10-04T02:19:31;18.00;;;9.75;;
52858;SDS011;38721;53.098;6.596;2022-10-04T02:22:01;17.27;;;9.40;;
52858;SDS011;38721;53.098;6.596;2022-10-04T02:24:32;20.23;;;10.32;;
52858;SDS011;38721;53.098;6.596;2022-10-04T02:27:01;18.17;;;9.45;;
52858;SDS011;38721;53.098;6.596;2022-10-04T02:29:27;18.38;;;9.65;;
52858;SDS011;38721;53.098;6.596;2022-10-04T02:31:52;15.98;;;9.57;;
52858;SDS011;38721;53.098;6.596;2022-10-04T02:34:37;21.25;;;9.30;;
52858;SDS011;38721;53.098;6.596;2022-10-04T02:37:05;17.98;;;9.48;;
52858;SDS011;38721;53.098;6.596;2022-10-04T02:42:37;17.58;;;9.10;;
52858;SDS011;38721;53.098;6.596;2022-10-04T02:51:11;18.25;;;9.00;;
52858;SDS011;38721;53.098;6.596;2022-10-04T02:56:22;18.02;;;8.95;;
52858;SDS011;38721;53.098;6.596;2022-10-04T02:58:49;18.35;;;8.93;;
52858;SDS011;38721;53.098;6.596;2022-10-04T03:01:22;16.80;;;9.45;;
52858;SDS011;38721;53.098;6.596;2022-10-04T03:03:50;22.17;;;9.63;;
52858;SDS011;38721;53.098;6.596;2022-10-04T03:06:19;15.57;;;9.00;;
52858;SDS011;38721;53.098;6.596;2022-10-04T03:08:48;21.70;;;10.20;;
52858;SDS011;38721;53.098;6.596;2022-10-04T03:11:17;18.02;;;9.68;;
52858;SDS011;38721;53.098;6.596;2022-10-04T03:13:48;20.88;;;9.80;;
52858;SDS011;38721;53.098;6.596;2022-10-04T03:16:18;20.08;;;10.40;;
52858;SDS011;38721;53.098;6.596;2022-10-04T03:18:45;16.70;;;9.55;;
52858;SDS011;38721;53.098;6.596;2022-10-04T03:21:15;19.15;;;10.25;;
52858;SDS011;38721;53.098;6.596;2022-10-04T03:23:45;20.10;;;9.77;;
52858;SDS011;38721;53.098;6.596;2022-10-04T03:26:25;16.27;;;9.57;;
52858;SDS011;38721;53.098;6.596;2022-10-04T03:29:04;15.43;;;10.32;;
52858;SDS011;38721;53.098;6.596;2022-10-04T03:31:39;21.25;;;10.32;;
52858;SDS011;38721;53.098;6.596;2022-10-04T03:34:27;21.48;;;11.10;;
52858;SDS011;38721;53.098;6.596;2022-10-04T03:36:58;17.13;;;10.30;;
52858;SDS011;38721;53.098;6.596;2022-10-04T03:39:26;24.08;;;10.55;;
52858;SDS011;38721;53.098;6.596;2022-10-04T03:41:56;19.83;;;11.07;;
52858;SDS011;38721;53.098;6.596;2022-10-04T03:44:23;21.90;;;11.40;;
52858;SDS011;38721;53.098;6.596;2022-10-04T03:46:49;22.35;;;11.20;;
52858;SDS011;38721;53.098;6.596;2022-10-04T03:49:16;18.25;;;11.23;;
52858;SDS011;38721;53.098;6.596;2022-10-04T03:51:50;22.60;;;11.15;;
52858;SDS011;38721;53.098;6.596;2022-10-04T03:54:18;20.13;;;11.32;;
52858;SDS011;38721;53.098;6.596;2022-10-04T03:56:47;20.08;;;11.55;;
52858;SDS011;38721;53.098;6.596;2022-10-04T03:59:16;20.02;;;11.43;;
52858;SDS011;38721;53.098;6.596;2022-10-04T04:01:44;22.27;;;11.65;;
52858;SDS011;38721;53.098;6.596;2022-10-04T04:04:23;22.90;;;11.38;;
52858;SDS011;38721;53.098;6.596;2022-10-04T04:07:00;22.10;;;11.82;;
52858;SDS011;38721;53.098;6.596;2022-10-04T04:12:12;23.98;;;12.90;;
52858;SDS011;38721;53.098;6.596;2022-10-04T04:14:43;25.45;;;12.27;;
52858;SDS011;38721;53.098;6.596;2022-10-04T04:19:59;23.70;;;12.00;;
52858;SDS011;38721;53.098;6.596;2022-10-04T04:22:27;27.40;;;12.75;;
52858;SDS011;38721;53.098;6.596;2022-10-04T04:25:06;22.60;;;12.35;;
52858;SDS011;38721;53.098;6.596;2022-10-04T04:27:38;23.02;;;13.02;;
52858;SDS011;38721;53.098;6.596;2022-10-04T04:30:06;18.23;;;11.95;;
52858;SDS011;38721;53.098;6.596;2022-10-04T04:32:37;24.15;;;13.32;;
52858;SDS011;38721;53.098;6.596;2022-10-04T04:35:16;20.90;;;12.90;;
52858;SDS011;38721;53.098;6.596;2022-10-04T04:38:05;23.63;;;13.27;;
52858;SDS011;38721;53.098;6.596;2022-10-04T04:40:46;22.77;;;13.57;;
52858;SDS011;38721;53.098;6.596;2022-10-04T04:43:23;19.48;;;12.80;;
52858;SDS011;38721;53.098;6.596;2022-10-04T04:45:51;24.42;;;13.93;;
52858;SDS011;38721;53.098;6.596;2022-10-04T04:48:19;20.10;;;13.70;;
52858;SDS011;38721;53.098;6.596;2022-10-04T04:50:48;22.42;;;13.55;;
52858;SDS011;38721;53.098;6.596;2022-10-04T04:53:20;22.75;;;14.10;;
52858;SDS011;38721;53.098;6.596;2022-10-04T04:55:54;22.10;;;13.52;;
52858;SDS011;38721;53.098;6.596;2022-10-04T04:58:25;25.20;;;13.70;;
52858;SDS011;38721;53.098;6.596;2022-10-04T05:03:33;22.00;;;14.05;;
52858;SDS011;38721;53.098;6.596;2022-10-04T05:05:59;24.48;;;15.13;;
52858;SDS011;38721;53.098;6.596;2022-10-04T05:08:30;22.15;;;14.35;;
52858;SDS011;38721;53.098;6.596;2022-10-04T05:13:46;28.15;;;14.82;;
52858;SDS011;38721;53.098;6.596;2022-10-04T05:16:20;25.83;;;14.70;;
52858;SDS011;38721;53.098;6.596;2022-10-04T05:18:55;27.75;;;15.45;;
52858;SDS011;38721;53.098;6.596;2022-10-04T05:21:27;26.17;;;15.20;;
52858;SDS011;38721;53.098;6.596;2022-10-04T05:23:55;24.08;;;15.13;;
52858;SDS011;38721;53.098;6.596;2022-10-04T05:26:25;22.60;;;15.48;;
52858;SDS011;38721;53.098;6.596;2022-10-04T05:28:55;23.98;;;14.60;;
52858;SDS011;38721;53.098;6.596;2022-10-04T05:34:24;21.02;;;14.20;;
52858;SDS011;38721;53.098;6.596;2022-10-04T05:44:48;27.60;;;16.15;;
52858;SDS011;38721;53.098;6.596;2022-10-04T05:47:28;29.90;;;16.58;;
52858;SDS011;38721;53.098;6.596;2022-10-04T05:49:58;29.17;;;17.48;;
52858;SDS011;38721;53.098;6.596;2022-10-04T05:52:34;28.77;;;16.45;;
52858;SDS011;38721;53.098;6.596;2022-10-04T05:55:22;28.60;;;16.27;;
52858;SDS011;38721;53.098;6.596;2022-10-04T06:05:53;39.45;;;17.00;;
52858;SDS011;38721;53.098;6.596;2022-10-04T06:08:29;24.15;;;16.17;;
52858;SDS011;38721;53.098;6.596;2022-10-04T06:17:03;25.42;;;15.88;;
52858;SDS011;38721;53.098;6.596;2022-10-04T06:22:58;25.98;;;16.60;;
52858;SDS011;38721;53.098;6.596;2022-10-04T06:25:30;27.73;;;17.65;;
52858;SDS011;38721;53.098;6.596;2022-10-04T06:28:16;27.95;;;16.77;;
52858;SDS011;38721;53.098;6.596;2022-10-04T06:31:17;27.52;;;16.98;;
52858;SDS011;38721;53.098;6.596;2022-10-04T06:53:54;25.60;;;15.73;;
52858;SDS011;38721;53.098;6.596;2022-10-04T06:59:48;29.27;;;15.93;;
52858;SDS011;38721;53.098;6.596;2022-10-04T07:02:41;22.77;;;15.18;;
52858;SDS011;38721;53.098;6.596;2022-10-04T07:05:31;25.13;;;15.15;;
52858;SDS011;38721;53.098;6.596;2022-10-04T07:08:32;23.13;;;14.30;;
52858;SDS011;38721;53.098;6.596;2022-10-04T07:11:23;23.75;;;15.02;;
52858;SDS011;38721;53.098;6.596;2022-10-04T07:16:35;25.40;;;14.43;;
52858;SDS011;38721;53.098;6.596;2022-10-04T07:19:38;28.48;;;14.93;;
52858;SDS011;38721;53.098;6.596;2022-10-04T07:22:12;23.92;;;15.20;;
52858;SDS011;38721;53.098;6.596;2022-10-04T07:27:51;21.33;;;14.50;;
52858;SDS011;38721;53.098;6.596;2022-10-04T07:30:54;20.98;;;13.77;;
52858;SDS011;38721;53.098;6.596;2022-10-04T07:33:28;21.08;;;14.98;;
52858;SDS011;38721;53.098;6.596;2022-10-04T07:36:21;20.60;;;14.10;;
52858;SDS011;38721;53.098;6.596;2022-10-04T07:38:55;26.40;;;14.77;;
52858;SDS011;38721;53.098;6.596;2022-10-04T07:41:53;21.40;;;14.25;;
52858;SDS011;38721;53.098;6.596;2022-10-04T07:49:39;19.23;;;14.23;;
52858;SDS011;38721;53.098;6.596;2022-10-04T08:00:42;17.13;;;12.85;;
52858;SDS011;38721;53.098;6.596;2022-10-04T08:06:30;17.60;;;12.15;;
52858;SDS011;38721;53.098;6.596;2022-10-04T08:09:17;18.63;;;12.40;;
52858;SDS011;38721;53.098;6.596;2022-10-04T08:11:58;21.13;;;12.43;;
52858;SDS011;38721;53.098;6.596;2022-10-04T08:26:41;23.83;;;13.15;;
52858;SDS011;38721;53.098;6.596;2022-10-04T08:32:12;19.40;;;12.85;;
52858;SDS011;38721;53.098;6.596;2022-10-04T08:52:11;17.13;;;9.38;;
52858;SDS011;38721;53.098;6.596;2022-10-04T08:58:15;12.98;;;8.57;;
52858;SDS011;38721;53.098;6.596;2022-10-04T09:06:22;15.15;;;8.75;;
52858;SDS011;38721;53.098;6.596;2022-10-04T09:11:44;15.38;;;7.80;;
52858;SDS011;38721;53.098;6.596;2022-10-04T09:23:00;13.55;;;7.20;;
52858;SDS011;38721;53.098;6.596;2022-10-04T09:44:54;12.77;;;6.55;;
52858;SDS011;38721;53.098;6.596;2022-10-04T09:50:32;12.88;;;6.63;;
52858;SDS011;38721;53.098;6.596;2022-10-04T10:07:51;11.10;;;6.22;;
52858;SDS011;38721;53.098;6.596;2022-10-04T10:10:55;11.23;;;6.50;;
52858;SDS011;38721;53.098;6.596;2022-10-04T10:36:57;10.88;;;6.05;;
52858;SDS011;38721;53.098;6.596;2022-10-04T10:40:05;7.80;;;5.20;;
52858;SDS011;38721;53.098;6.596;2022-10-04T11:07:15;9.15;;;4.70;;
52858;SDS011;38721;53.098;6.596;2022-10-04T11:38:51;6.63;;;4.05;;
52858;SDS011;38721;53.098;6.596;2022-10-04T11:49:58;10.07;;;5.43;;
52858;SDS011;38721;53.098;6.596;2022-10-04T12:20:41;7.47;;;4.50;;
52858;SDS011;38721;53.098;6.596;2022-10-04T12:32:13;6.78;;;4.13;;
52858;SDS011;38721;53.098;6.596;2022-10-04T12:40:42;8.35;;;4.22;;
52858;SDS011;38721;53.098;6.596;2022-10-04T12:43:43;8.63;;;4.90;;
52858;SDS011;38721;53.098;6.596;2022-10-04T12:49:11;10.13;;;4.80;;
52858;SDS011;38721;53.098;6.596;2022-10-04T12:54:51;7.70;;;5.22;;
52858;SDS011;38721;53.098;6.596;2022-10-04T13:00:20;7.45;;;5.03;;
52858;SDS011;38721;53.098;6.596;2022-10-04T13:14:40;9.02;;;5.68;;
52858;SDS011;38721;53.098;6.596;2022-10-04T13:17:31;10.35;;;6.30;;
52858;SDS011;38721;53.098;6.596;2022-10-04T13:25:58;9.93;;;5.80;;
52858;SDS011;38721;53.098;6.596;2022-10-04T13:28:27;10.05;;;4.85;;
52858;SDS011;38721;53.098;6.596;2022-10-04T13:33:58;10.57;;;5.18;;
52858;SDS011;38721;53.098;6.596;2022-10-04T13:41:51;7.40;;;5.03;;
52858;SDS011;38721;53.098;6.596;2022-10-04T13:44:39;9.02;;;4.95;;
52858;SDS011;38721;53.098;6.596;2022-10-04T13:47:30;9.13;;;4.70;;
52858;SDS011;38721;53.098;6.596;2022-10-04T13:56:14;7.60;;;4.80;;
52858;SDS011;38721;53.098;6.596;2022-10-04T14:07:33;7.60;;;4.43;;
52858;SDS011;38721;53.098;6.596;2022-10-04T14:16:58;6.03;;;3.70;;
52858;SDS011;38721;53.098;6.596;2022-10-04T14:34:36;8.23;;;3.25;;
52858;SDS011;38721;53.098;6.596;2022-10-04T15:00:19;6.40;;;2.80;;
52858;SDS011;38721;53.098;6.596;2022-10-04T15:05:18;4.75;;;2.40;;
52858;SDS011;38721;53.098;6.596;2022-10-04T15:11:05;4.30;;;2.38;;
52858;SDS011;38721;53.098;6.596;2022-10-04T15:13:34;3.17;;;2.20;;
52858;SDS011;38721;53.098;6.596;2022-10-04T15:18:55;5.07;;;2.33;;
52858;SDS011;38721;53.098;6.596;2022-10-04T15:26:52;5.53;;;2.53;;
52858;SDS011;38721;53.098;6.596;2022-10-04T15:32:35;7.97;;;3.00;;
52858;SDS011;38721;53.098;6.596;2022-10-04T15:37:52;6.22;;;2.97;;
52858;SDS011;38721;53.098;6.596;2022-10-04T15:50:28;7.85;;;3.35;;
52858;SDS011;38721;53.098;6.596;2022-10-04T16:10:24;6.82;;;3.50;;
52858;SDS011;38721;53.098;6.596;2022-10-04T16:13:16;7.13;;;3.15;;
52858;SDS011;38721;53.098;6.596;2022-10-04T16:15:44;5.78;;;2.95;;
52858;SDS011;38721;53.098;6.596;2022-10-04T16:18:31;5.60;;;3.00;;
52858;SDS011;38721;53.098;6.596;2022-10-04T16:32:00;6.15;;;3.17;;
52858;SDS011;38721;53.098;6.596;2022-10-04T16:42:54;6.43;;;3.10;;
52858;SDS011;38721;53.098;6.596;2022-10-04T17:27:00;8.50;;;4.40;;
52858;SDS011;38721;53.098;6.596;2022-10-04T17:48:46;8.68;;;4.80;;
52858;SDS011;38721;53.098;6.596;2022-10-04T17:51:48;11.05;;;5.03;;
52858;SDS011;38721;53.098;6.596;2022-10-04T17:57:51;10.02;;;4.95;;
52858;SDS011;38721;53.098;6.596;2022-10-04T18:00:49;10.48;;;5.30;;
52858;SDS011;38721;53.098;6.596;2022-10-04T18:03:22;7.57;;;4.80;;
52858;SDS011;38721;53.098;6.596;2022-10-04T18:05:51;8.98;;;4.93;;
52858;SDS011;38721;53.098;6.596;2022-10-04T18:08:36;7.13;;;4.43;;
52858;SDS011;38721;53.098;6.596;2022-10-04T18:11:05;10.48;;;5.07;;
52858;SDS011;38721;53.098;6.596;2022-10-04T18:13:49;8.43;;;4.93;;
52858;SDS011;38721;53.098;6.596;2022-10-04T18:18:55;9.45;;;5.07;;
52858;SDS011;38721;53.098;6.596;2022-10-04T18:21:27;9.73;;;5.22;;
52858;SDS011;38721;53.098;6.596;2022-10-04T18:23:58;6.68;;;4.68;;
52858;SDS011;38721;53.098;6.596;2022-10-04T18:26:30;8.45;;;4.88;;
52858;SDS011;38721;53.098;6.596;2022-10-04T18:29:00;10.20;;;4.90;;
52858;SDS011;38721;53.098;6.596;2022-10-04T18:31:35;9.52;;;5.30;;
52858;SDS011;38721;53.098;6.596;2022-10-04T18:36:51;9.20;;;5.00;;
52858;SDS011;38721;53.098;6.596;2022-10-04T18:39:22;9.13;;;5.15;;
52858;SDS011;38721;53.098;6.596;2022-10-04T18:47:36;7.30;;;4.80;;
52858;SDS011;38721;53.098;6.596;2022-10-04T19:04:45;8.80;;;5.10;;
52858;SDS011;38721;53.098;6.596;2022-10-04T19:19:41;10.55;;;5.63;;
52858;SDS011;38721;53.098;6.596;2022-10-04T19:35:36;10.70;;;6.25;;
52858;SDS011;38721;53.098;6.596;2022-10-04T19:44:02;12.02;;;6.38;;
52858;SDS011;38721;53.098;6.596;2022-10-04T19:47:15;12.85;;;5.90;;
52858;SDS011;38721;53.098;6.596;2022-10-04T19:52:40;11.13;;;6.07;;
52858;SDS011;38721;53.098;6.596;2022-10-04T19:55:23;8.18;;;5.70;;
52858;SDS011;38721;53.098;6.596;2022-10-04T20:00:58;10.50;;;6.00;;
52858;SDS011;38721;53.098;6.596;2022-10-04T20:03:38;10.55;;;6.28;;
52858;SDS011;38721;53.098;6.596;2022-10-04T20:06:04;9.32;;;6.25;;
52858;SDS011;38721;53.098;6.596;2022-10-04T20:11:16;7.90;;;6.03;;
52858;SDS011;38721;53.098;6.596;2022-10-04T20:22:14;7.72;;;5.38;;
52858;SDS011;38721;53.098;6.596;2022-10-04T20:24:51;11.63;;;6.80;;
52858;SDS011;38721;53.098;6.596;2022-10-04T20:34:55;9.07;;;6.80;;
52858;SDS011;38721;53.098;6.596;2022-10-04T20:38:12;10.45;;;6.20;;
52858;SDS011;38721;53.098;6.596;2022-10-04T20:48:21;10.52;;;6.75;;
52858;SDS011;38721;53.098;6.596;2022-10-04T20:50:48;8.93;;;6.57;;
52858;SDS011;38721;53.098;6.596;2022-10-04T20:53:25;12.23;;;7.13;;
52858;SDS011;38721;53.098;6.596;2022-10-04T20:58:52;11.38;;;6.50;;
52858;SDS011;38721;53.098;6.596;2022-10-04T21:07:11;12.02;;;6.88;;
52858;SDS011;38721;53.098;6.596;2022-10-04T21:09:45;9.35;;;6.57;;
52858;SDS011;38721;53.098;6.596;2022-10-04T21:12:36;9.40;;;6.25;;
52858;SDS011;38721;53.098;6.596;2022-10-04T21:15:00;9.98;;;6.47;;
52858;SDS011;38721;53.098;6.596;2022-10-04T21:19:55;12.43;;;6.57;;
52858;SDS011;38721;53.098;6.596;2022-10-04T21:30:05;11.60;;;6.63;;
52858;SDS011;38721;53.098;6.596;2022-10-04T21:32:37;13.75;;;6.95;;
52858;SDS011;38721;53.098;6.596;2022-10-04T21:35:03;12.05;;;7.40;;
52858;SDS011;38721;53.098;6.596;2022-10-04T21:37:30;10.98;;;6.80;;
52858;SDS011;38721;53.098;6.596;2022-10-04T21:39:56;13.68;;;6.75;;
52858;SDS011;38721;53.098;6.596;2022-10-04T21:42:22;11.77;;;6.80;;
52858;SDS011;38721;53.098;6.596;2022-10-04T21:44:48;10.95;;;7.03;;
52858;SDS011;38721;53.098;6.596;2022-10-04T21:47:14;13.10;;;7.45;;
52858;SDS011;38721;53.098;6.596;2022-10-04T21:49:43;12.38;;;6.75;;
52858;SDS011;38721;53.098;6.596;2022-10-04T21:52:09;7.88;;;6.57;;
52858;SDS011;38721;53.098;6.596;2022-10-04T21:54:34;11.05;;;6.78;;
52858;SDS011;38721;53.098;6.596;2022-10-04T21:57:00;9.85;;;6.68;;
52858;SDS011;38721;53.098;6.596;2022-10-04T21:59:26;12.00;;;6.32;;
52858;SDS011;38721;53.098;6.596;2022-10-04T22:01:52;10.15;;;6.55;;
52858;SDS011;38721;53.098;6.596;2022-10-04T22:04:18;7.95;;;6.95;;
52858;SDS011;38721;53.098;6.596;2022-10-04T22:06:43;9.32;;;7.15;;
52858;SDS011;38721;53.098;6.596;2022-10-04T22:09:12;9.73;;;7.07;;
52858;SDS011;38721;53.098;6.596;2022-10-04T22:11:38;10.95;;;6.90;;
52858;SDS011;38721;53.098;6.596;2022-10-04T22:14:03;11.00;;;6.85;;
52858;SDS011;38721;53.098;6.596;2022-10-04T22:16:29;11.13;;;6.97;;
52858;SDS011;38721;53.098;6.596;2022-10-04T22:18:55;9.02;;;6.60;;
52858;SDS011;38721;53.098;6.596;2022-10-04T22:21:21;11.73;;;6.97;;
52858;SDS011;38721;53.098;6.596;2022-10-04T22:23:46;9.43;;;6.53;;
52858;SDS011;38721;53.098;6.596;2022-10-04T22:26:17;9.57;;;6.82;;
52858;SDS011;38721;53.098;6.596;2022-10-04T22:28:52;10.63;;;6.50;;
52858;SDS011;38721;53.098;6.596;2022-10-04T22:31:20;10.98;;;7.20;;
52858;SDS011;38721;53.098;6.596;2022-10-04T22:33:49;10.18;;;6.82;;
52858;SDS011;38721;53.098;6.596;2022-10-04T22:38:56;10.82;;;7.28;;
52858;SDS011;38721;53.098;6.596;2022-10-04T22:41:41;10.90;;;7.13;;
52858;SDS011;38721;53.098;6.596;2022-10-04T22:44:22;10.93;;;7.13;;
52858;SDS011;38721;53.098;6.596;2022-10-04T22:46:55;10.55;;;7.15;;
52858;SDS011;38721;53.098;6.596;2022-10-04T22:49:24;12.32;;;7.88;;
52858;SDS011;38721;53.098;6.596;2022-10-04T22:51:52;9.65;;;6.88;;
52858;SDS011;38721;53.098;6.596;2022-10-04T22:54:20;10.82;;;7.25;;
52858;SDS011;38721;53.098;6.596;2022-10-04T22:56:49;12.75;;;7.82;;
52858;SDS011;38721;53.098;6.596;2022-10-04T22:59:16;10.75;;;7.93;;
52858;SDS011;38721;53.098;6.596;2022-10-04T23:01:46;9.82;;;8.00;;
52858;SDS011;38721;53.098;6.596;2022-10-04T23:04:19;8.80;;;7.20;;
52858;SDS011;38721;53.098;6.596;2022-10-04T23:06:50;10.02;;;7.53;;
52858;SDS011;38721;53.098;6.596;2022-10-04T23:09:17;11.57;;;7.78;;
52858;SDS011;38721;53.098;6.596;2022-10-04T23:11:46;13.50;;;7.28;;
52858;SDS011;38721;53.098;6.596;2022-10-04T23:14:15;11.77;;;6.80;;
52858;SDS011;38721;53.098;6.596;2022-10-04T23:16:43;10.73;;;6.70;;
52858;SDS011;38721;53.098;6.596;2022-10-04T23:19:19;10.57;;;7.57;;
52858;SDS011;38721;53.098;6.596;2022-10-04T23:21:45;12.55;;;7.88;;
52858;SDS011;38721;53.098;6.596;2022-10-04T23:24:14;11.52;;;8.25;;
52858;SDS011;38721;53.098;6.596;2022-10-04T23:26:46;12.27;;;7.60;;
52858;SDS011;38721;53.098;6.596;2022-10-04T23:29:20;11.27;;;7.78;;
52858;SDS011;38721;53.098;6.596;2022-10-04T23:31:53;11.60;;;7.78;;
52858;SDS011;38721;53.098;6.596;2022-10-04T23:34:33;10.25;;;8.18;;
52858;SDS011;38721;53.098;6.596;2022-10-04T23:37:01;12.23;;;8.00;;
52858;SDS011;38721;53.098;6.596;2022-10-04T23:39:31;11.27;;;6.97;;
52858;SDS011;38721;53.098;6.596;2022-10-04T23:41:59;11.10;;;7.60;;
52858;SDS011;38721;53.098;6.596;2022-10-04T23:44:32;10.25;;;7.25;;
52858;SDS011;38721;53.098;6.596;2022-10-04T23:46:59;9.80;;;7.15;;
52858;SDS011;38721;53.098;6.596;2022-10-04T23:49:26;11.77;;;7.95;;
52858;SDS011;38721;53.098;6.596;2022-10-04T23:51:56;13.05;;;8.00;;
52858;SDS011;38721;53.098;6.596;2022-10-04T23:54:28;9.75;;;7.05;;
52858;SDS011;38721;53.098;6.596;2022-10-04T23:56:54;13.50;;;7.78;;
52858;SDS011;38721;53.098;6.596;2022-10-04T23:59:21;9.75;;;7.10;;
